createdAt,value
2019-03-21T00:02:09.027Z,7.40
2019-03-21T00:04:50.209Z,7.30
2019-03-21T00:07:31.278Z,7.30
2019-03-21T00:10:11.943Z,7.10
2019-03-21T00:12:53.560Z,7.00
2019-03-21T00:15:34.200Z,7.10
2019-03-21T00:18:15.264Z,7.10
2019-03-21T00:20:55.758Z,7.20
2019-03-21T00:23:36.647Z,7.30
2019-03-21T00:26:18.097Z,7.20
2019-03-21T00:28:58.840Z,7.00
2019-03-21T00:31:39.267Z,6.90
2019-03-21T00:34:08.914Z,6.80
2019-03-21T00:36:57.469Z,6.80
2019-03-21T00:39:46.194Z,6.70
2019-03-21T00:42:34.899Z,6.70
2019-03-21T00:45:23.381Z,6.70
2019-03-21T00:48:12.647Z,6.60
2019-03-21T00:51:01.028Z,6.60
2019-03-21T00:53:49.856Z,6.60
2019-03-21T00:56:38.546Z,6.60
2019-03-21T00:59:27.281Z,6.60
2019-03-21T01:02:16.000Z,6.60
2019-03-21T01:05:04.591Z,6.60
2019-03-21T01:07:53.053Z,6.50
2019-03-21T01:11:00.567Z,6.40
2019-03-21T01:13:49.054Z,6.40
2019-03-21T01:16:29.759Z,6.40
2019-03-21T01:19:10.548Z,6.40
2019-03-21T01:21:51.086Z,6.40
2019-03-21T01:24:32.181Z,6.30
2019-03-21T01:27:13.229Z,6.30
2019-03-21T01:29:54.358Z,6.20
2019-03-21T01:32:35.484Z,6.20
2019-03-21T01:35:16.474Z,6.20
2019-03-21T01:37:57.428Z,6.40
2019-03-21T01:40:38.723Z,6.30
2019-03-21T01:43:19.396Z,6.20
2019-03-21T01:46:00.195Z,6.10
2019-03-21T01:48:41.084Z,6.20
2019-03-21T01:51:22.049Z,6.20
2019-03-21T01:54:02.730Z,6.20
2019-03-21T01:56:43.464Z,6.10
2019-03-21T01:59:24.533Z,6.10
2019-03-21T02:02:05.913Z,6.10
2019-03-21T02:04:46.880Z,6.00
2019-03-21T02:07:27.416Z,5.80
2019-03-21T02:10:07.780Z,5.80
2019-03-21T02:12:48.502Z,5.80
2019-03-21T02:15:29.523Z,5.70
2019-03-21T02:18:10.183Z,5.70
2019-03-21T02:20:51.388Z,5.90
2019-03-21T02:23:32.158Z,5.80
2019-03-21T02:26:12.693Z,5.80
2019-03-21T02:28:53.163Z,5.80
2019-03-21T02:31:34.145Z,5.70
2019-03-21T02:34:15.249Z,5.70
2019-03-21T02:36:56.106Z,5.70
2019-03-21T02:39:37.105Z,5.60
2019-03-21T02:42:17.992Z,5.60
2019-03-21T02:45:08.406Z,5.60
2019-03-21T02:47:41.777Z,5.50
2019-03-21T02:50:22.264Z,5.40
2019-03-21T02:53:03.267Z,5.30
2019-03-21T02:55:49.940Z,5.30
2019-03-21T02:58:31.227Z,5.30
2019-03-21T03:01:12.244Z,5.20
2019-03-21T03:03:53.685Z,5.20
2019-03-21T03:06:23.421Z,5.20
2019-03-21T03:09:12.606Z,5.20
2019-03-21T03:12:01.092Z,5.10
2019-03-21T03:14:49.552Z,5.10
2019-03-21T03:17:38.011Z,5.10
2019-03-21T03:20:26.491Z,5.00
2019-03-21T03:23:14.949Z,5.00
2019-03-21T03:26:03.434Z,5.00
2019-03-21T03:28:51.916Z,5.00
2019-03-21T03:31:40.675Z,4.90
2019-03-21T03:34:29.612Z,4.80
2019-03-21T03:37:18.081Z,4.80
2019-03-21T03:40:07.378Z,4.80
2019-03-21T03:42:55.820Z,4.80
2019-03-21T03:45:44.300Z,4.80
2019-03-21T03:48:32.750Z,4.90
2019-03-21T03:51:21.581Z,5.00
2019-03-21T03:54:10.035Z,4.90
2019-03-21T03:56:58.676Z,4.90
2019-03-21T03:59:47.407Z,4.90
2019-03-21T04:02:27.865Z,4.90
2019-03-21T04:05:08.979Z,4.90
2019-03-21T04:07:49.792Z,4.80
2019-03-21T04:10:30.233Z,4.80
2019-03-21T04:13:11.075Z,4.80
2019-03-21T04:15:53.789Z,4.80
2019-03-21T04:18:34.276Z,4.80
2019-03-21T04:21:15.194Z,4.80
2019-03-21T04:23:59.521Z,4.90
2019-03-21T04:26:38.924Z,4.80
2019-03-21T04:29:19.619Z,4.80
2019-03-21T04:32:00.483Z,4.70
2019-03-21T04:34:41.310Z,4.80
2019-03-21T04:37:22.151Z,4.80
2019-03-21T04:40:02.845Z,4.70
2019-03-21T04:42:43.657Z,4.70
2019-03-21T04:45:24.641Z,4.60
2019-03-21T04:48:05.384Z,4.50
2019-03-21T04:50:46.778Z,4.50
2019-03-21T04:53:27.633Z,4.50
2019-03-21T04:56:09.003Z,4.60
2019-03-21T04:58:50.207Z,4.70
2019-03-21T05:01:31.484Z,4.80
2019-03-21T05:04:12.306Z,4.60
2019-03-21T05:06:53.156Z,4.60
2019-03-21T05:09:33.898Z,4.60
2019-03-21T05:12:14.611Z,4.60
2019-03-21T05:14:55.407Z,4.60
2019-03-21T05:17:36.131Z,4.50
2019-03-21T05:20:17.068Z,4.40
2019-03-21T05:22:57.398Z,4.40
2019-03-21T05:25:38.710Z,4.40
2019-03-21T05:28:19.399Z,4.30
2019-03-21T05:31:00.687Z,4.30
2019-03-21T05:33:41.498Z,4.30
2019-03-21T05:36:22.405Z,4.20
2019-03-21T05:39:04.293Z,4.20
2019-03-21T05:41:45.392Z,4.20
2019-03-21T05:44:26.866Z,4.10
2019-03-21T05:47:07.446Z,3.90
2019-03-21T05:49:48.217Z,4.00
2019-03-21T05:52:29.091Z,4.00
2019-03-21T05:55:10.367Z,4.10
2019-03-21T05:57:50.847Z,4.10
2019-03-21T06:00:31.647Z,4.20
2019-03-21T06:03:12.364Z,4.20
2019-03-21T06:05:52.969Z,4.20
2019-03-21T06:08:34.258Z,4.30
2019-03-21T06:11:14.931Z,4.40
2019-03-21T06:13:55.574Z,4.40
2019-03-21T06:16:37.795Z,4.40
2019-03-21T06:19:29.517Z,4.50
2019-03-21T06:22:36.802Z,4.50
2019-03-21T06:25:44.059Z,4.70
2019-03-21T06:28:32.538Z,5.00
2019-03-21T06:31:21.323Z,5.60
2019-03-21T06:34:10.382Z,6.20
2019-03-21T06:36:59.262Z,6.70
2019-03-21T06:39:48.002Z,7.30
2019-03-21T06:42:38.952Z,7.60
2019-03-21T06:45:27.241Z,7.80
2019-03-21T06:48:16.027Z,8.00
2019-03-21T06:51:04.489Z,8.00
2019-03-21T06:53:52.942Z,8.10
2019-03-21T06:56:41.664Z,8.30
2019-03-21T06:59:22.696Z,8.60
2019-03-21T07:02:03.808Z,8.80
2019-03-21T07:04:45.050Z,8.90
2019-03-21T07:07:25.669Z,9.10
2019-03-21T07:10:06.546Z,8.70
2019-03-21T07:12:47.618Z,9.10
2019-03-21T07:15:28.367Z,9.40
2019-03-21T07:18:09.450Z,9.50
2019-03-21T07:20:50.694Z,9.80
2019-03-21T07:23:31.464Z,10.00
2019-03-21T07:26:12.010Z,10.20
2019-03-21T07:28:52.619Z,10.50
2019-03-21T07:31:33.951Z,10.80
2019-03-21T07:34:03.662Z,11.20
2019-03-21T07:36:52.155Z,11.60
2019-03-21T07:39:21.870Z,11.90
2019-03-21T07:42:10.331Z,12.10
2019-03-21T07:45:00.351Z,12.30
2019-03-21T07:47:49.282Z,12.50
2019-03-21T07:50:37.759Z,12.30
2019-03-21T07:53:26.830Z,12.30
2019-03-21T07:56:15.300Z,12.40
2019-03-21T07:59:04.003Z,12.40
2019-03-21T08:01:33.718Z,12.70
2019-03-21T08:04:22.297Z,13.10
2019-03-21T08:07:10.766Z,13.40
2019-03-21T08:09:59.296Z,13.30
2019-03-21T08:12:48.410Z,13.40
2019-03-21T08:15:38.015Z,13.50
2019-03-21T08:18:27.199Z,13.60
2019-03-21T08:21:16.130Z,14.10
2019-03-21T08:24:04.844Z,14.30
2019-03-21T08:26:53.313Z,14.50
2019-03-21T08:29:42.007Z,14.40
2019-03-21T08:32:23.339Z,14.80
2019-03-21T08:35:05.075Z,14.80
2019-03-21T08:37:46.214Z,15.10
2019-03-21T08:40:27.716Z,15.40
2019-03-21T08:43:08.727Z,15.20
2019-03-21T08:45:49.587Z,15.30
2019-03-21T08:48:30.316Z,15.50
2019-03-21T08:51:11.055Z,15.60
2019-03-21T08:53:51.878Z,15.80
2019-03-21T08:56:33.275Z,15.60
2019-03-21T08:59:14.446Z,16.20
2019-03-21T09:01:55.281Z,16.50
2019-03-21T09:04:36.327Z,16.80
2019-03-21T09:07:17.555Z,17.20
2019-03-21T09:09:47.203Z,17.00
2019-03-21T09:12:36.802Z,17.10
2019-03-21T09:15:08.131Z,17.00
2019-03-21T09:17:49.682Z,17.20
2019-03-21T09:20:30.507Z,17.40
2019-03-21T09:23:11.759Z,17.50
2019-03-21T09:25:52.546Z,17.60
2019-03-21T09:28:33.361Z,17.80
2019-03-21T09:31:14.658Z,17.90
2019-03-21T09:33:55.812Z,17.70
2019-03-21T09:36:36.937Z,17.90
2019-03-21T09:39:17.494Z,18.50
2019-03-21T09:41:58.338Z,18.60
2019-03-21T09:44:39.116Z,18.90
2019-03-21T09:47:19.806Z,19.40
2019-03-21T09:50:01.130Z,19.50
2019-03-21T09:52:42.183Z,19.90
2019-03-21T09:55:22.874Z,19.60
2019-03-21T09:58:04.381Z,20.00
2019-03-21T10:00:44.915Z,19.70
2019-03-21T10:03:25.995Z,20.10
2019-03-21T10:06:06.661Z,20.40
2019-03-21T10:08:47.207Z,20.50
2019-03-21T10:11:28.303Z,20.50
2019-03-21T10:14:08.983Z,20.40
2019-03-21T10:16:50.193Z,20.50
2019-03-21T10:19:30.923Z,20.20
2019-03-21T10:22:11.952Z,20.10
2019-03-21T10:24:53.142Z,20.40
2019-03-21T10:27:33.801Z,20.80
2019-03-21T10:30:14.327Z,20.80
2019-03-21T10:32:44.261Z,20.40
2019-03-21T10:35:13.867Z,20.60
2019-03-21T10:37:43.765Z,20.60
2019-03-21T10:40:13.366Z,20.60
2019-03-21T10:42:42.992Z,20.70
2019-03-21T10:45:12.603Z,20.50
2019-03-21T10:47:42.483Z,20.30
2019-03-21T10:50:16.055Z,20.30
2019-03-21T10:52:45.950Z,20.10
2019-03-21T10:55:15.578Z,20.40
2019-03-21T10:57:45.195Z,20.80
2019-03-21T11:00:14.826Z,20.80
2019-03-21T11:02:44.723Z,20.40
2019-03-21T11:05:14.669Z,20.00
2019-03-21T11:07:44.549Z,20.20
2019-03-21T11:10:14.183Z,20.60
2019-03-21T11:12:43.782Z,21.10
2019-03-21T11:15:13.626Z,21.30
2019-03-21T11:17:43.290Z,21.30
2019-03-21T11:20:18.742Z,21.20
2019-03-21T11:22:48.365Z,21.00
2019-03-21T11:25:17.990Z,21.10
2019-03-21T11:27:47.654Z,21.30
2019-03-21T11:30:20.213Z,21.10
2019-03-21T11:32:49.889Z,20.90
2019-03-21T11:35:19.540Z,20.90
2019-03-21T11:37:49.438Z,21.00
2019-03-21T11:40:19.154Z,21.10
2019-03-21T11:42:49.058Z,20.70
2019-03-21T11:45:19.107Z,20.70
2019-03-21T11:47:48.790Z,20.80
2019-03-21T11:50:18.505Z,21.10
2019-03-21T11:52:48.135Z,21.00
2019-03-21T11:55:17.779Z,21.10
2019-03-21T11:57:47.652Z,21.00
2019-03-21T12:00:17.668Z,21.00
2019-03-21T12:02:47.278Z,20.80
2019-03-21T12:05:16.914Z,20.90
2019-03-21T12:07:46.525Z,20.90
2019-03-21T12:10:17.725Z,20.90
2019-03-21T12:12:47.414Z,20.90
2019-03-21T12:15:17.064Z,20.80
2019-03-21T12:17:46.710Z,20.70
2019-03-21T12:20:27.776Z,20.30
2019-03-21T12:22:57.407Z,20.20
2019-03-21T12:25:27.065Z,20.30
2019-03-21T12:27:56.841Z,20.30
2019-03-21T12:30:31.854Z,20.40
2019-03-21T12:33:01.472Z,20.40
2019-03-21T12:35:31.126Z,20.30
2019-03-21T12:38:00.987Z,20.30
2019-03-21T12:40:30.610Z,20.10
2019-03-21T12:43:00.487Z,20.10
2019-03-21T12:45:30.134Z,20.20
2019-03-21T12:47:59.762Z,20.50
2019-03-21T12:50:29.378Z,20.40
2019-03-21T12:52:59.013Z,20.30
2019-03-21T12:55:29.446Z,20.10
2019-03-21T12:57:59.310Z,19.90
2019-03-21T13:00:42.319Z,19.70
2019-03-21T13:03:12.063Z,19.90
2019-03-21T13:05:41.973Z,19.70
2019-03-21T13:08:11.822Z,19.40
2019-03-21T13:10:41.448Z,19.20
2019-03-21T13:13:11.047Z,19.40
2019-03-21T13:15:40.924Z,19.40
2019-03-21T13:18:10.801Z,19.40
2019-03-21T13:20:40.438Z,19.20
2019-03-21T13:23:10.058Z,19.20
2019-03-21T13:25:39.682Z,19.30
2019-03-21T13:28:09.299Z,19.20
2019-03-21T13:30:38.937Z,19.10
2019-03-21T13:33:08.549Z,19.00
2019-03-21T13:35:38.163Z,18.90
2019-03-21T13:38:08.018Z,19.00
2019-03-21T13:40:37.641Z,19.20
2019-03-21T13:43:07.274Z,19.20
2019-03-21T13:45:37.155Z,19.20
2019-03-21T13:48:06.950Z,19.20
2019-03-21T13:50:36.578Z,19.10
2019-03-21T13:53:17.759Z,18.70
2019-03-21T13:55:37.575Z,18.70
2019-03-21T13:58:07.215Z,18.80
2019-03-21T14:00:36.815Z,18.70
2019-03-21T14:03:06.462Z,18.70
2019-03-21T14:05:36.086Z,18.80
2019-03-21T14:08:05.987Z,18.80
2019-03-21T14:10:35.606Z,18.50
2019-03-21T14:13:05.259Z,18.60
2019-03-21T14:15:35.119Z,18.80
2019-03-21T14:18:04.803Z,18.90
2019-03-21T14:20:34.686Z,18.90
2019-03-21T14:23:16.015Z,18.90
2019-03-21T14:25:35.908Z,18.90
2019-03-21T14:28:05.535Z,18.70
2019-03-21T14:30:35.142Z,18.60
2019-03-21T14:33:04.778Z,18.60
2019-03-21T14:35:34.647Z,18.70
2019-03-21T14:38:04.526Z,18.70
2019-03-21T14:40:34.129Z,18.70
2019-03-21T14:43:04.854Z,18.80
2019-03-21T14:45:34.457Z,18.80
2019-03-21T14:48:04.109Z,18.70
2019-03-21T14:50:33.713Z,18.80
2019-03-21T14:53:03.591Z,18.80
2019-03-21T14:55:33.194Z,18.80
2019-03-21T14:58:03.079Z,18.80
2019-03-21T15:00:32.686Z,19.00
2019-03-21T15:03:02.590Z,18.80
2019-03-21T15:05:32.183Z,18.80
2019-03-21T15:08:01.806Z,18.80
2019-03-21T15:10:31.414Z,18.80
2019-03-21T15:13:01.356Z,18.80
2019-03-21T15:15:32.285Z,19.00
2019-03-21T15:18:02.062Z,19.00
2019-03-21T15:20:31.674Z,19.00
2019-03-21T15:23:01.290Z,18.80
2019-03-21T15:25:30.986Z,18.70
2019-03-21T15:28:00.702Z,18.70
2019-03-21T15:30:30.317Z,18.60
2019-03-21T15:33:00.214Z,18.60
2019-03-21T15:35:29.811Z,18.60
2019-03-21T15:37:59.455Z,18.50
2019-03-21T15:40:29.065Z,18.50
2019-03-21T15:42:58.704Z,18.50
2019-03-21T15:45:28.315Z,18.40
2019-03-21T15:47:57.949Z,18.30
2019-03-21T15:50:37.364Z,18.20
2019-03-21T15:53:06.017Z,18.20
2019-03-21T15:55:36.211Z,18.30
2019-03-21T15:58:05.926Z,18.20
2019-03-21T16:00:37.150Z,18.10
2019-03-21T16:03:07.389Z,18.10
2019-03-21T16:05:37.633Z,18.00
2019-03-21T16:08:09.127Z,18.10
2019-03-21T16:10:39.319Z,18.10
2019-03-21T16:13:09.230Z,18.10
2019-03-21T16:15:39.201Z,18.00
2019-03-21T16:18:08.921Z,17.90
2019-03-21T16:20:38.542Z,17.70
2019-03-21T16:23:08.190Z,17.70
2019-03-21T16:25:37.862Z,17.60
2019-03-21T16:28:07.750Z,17.60
2019-03-21T16:30:37.417Z,17.50
2019-03-21T16:33:07.101Z,17.50
2019-03-21T16:35:36.710Z,17.50
2019-03-21T16:38:06.590Z,17.50
2019-03-21T16:40:36.190Z,17.40
2019-03-21T16:43:06.150Z,17.30
2019-03-21T16:45:35.859Z,17.30
2019-03-21T16:48:08.801Z,17.40
2019-03-21T16:50:38.062Z,17.20
2019-03-21T16:53:07.706Z,17.20
2019-03-21T16:55:37.671Z,17.10
2019-03-21T16:58:07.286Z,17.10
2019-03-21T17:00:37.185Z,17.10
2019-03-21T17:03:07.083Z,16.90
2019-03-21T17:05:36.738Z,16.80
2019-03-21T17:08:11.528Z,16.70
2019-03-21T17:10:37.742Z,16.60
2019-03-21T17:13:07.541Z,16.60
2019-03-21T17:15:37.252Z,16.50
2019-03-21T17:18:06.886Z,16.40
2019-03-21T17:20:36.630Z,16.40
2019-03-21T17:23:06.616Z,16.30
2019-03-21T17:25:36.584Z,16.20
2019-03-21T17:28:06.261Z,16.10
2019-03-21T17:30:36.150Z,16.10
2019-03-21T17:33:06.012Z,16.00
2019-03-21T17:35:35.675Z,15.90
2019-03-21T17:38:05.294Z,15.90
2019-03-21T17:40:35.334Z,15.80
2019-03-21T17:43:05.002Z,15.80
2019-03-21T17:45:34.879Z,15.70
2019-03-21T17:48:04.769Z,15.60
2019-03-21T17:50:34.658Z,15.50
2019-03-21T17:53:04.355Z,15.50
2019-03-21T17:55:33.998Z,15.40
2019-03-21T17:58:03.589Z,15.40
2019-03-21T18:00:33.686Z,15.30
2019-03-21T18:03:03.330Z,15.30
2019-03-21T18:05:32.966Z,15.20
2019-03-21T18:08:02.864Z,15.20
2019-03-21T18:10:33.360Z,15.20
2019-03-21T18:13:03.198Z,15.10
2019-03-21T18:15:32.863Z,15.10
2019-03-21T18:18:02.555Z,15.10
2019-03-21T18:20:32.528Z,15.10
2019-03-21T18:23:02.427Z,15.00
2019-03-21T18:25:32.081Z,15.00
2019-03-21T18:28:01.703Z,14.80
2019-03-21T18:30:31.338Z,14.70
2019-03-21T18:33:01.749Z,14.50
2019-03-21T18:35:31.386Z,14.40
2019-03-21T18:38:01.002Z,14.30
2019-03-21T18:40:30.964Z,14.30
2019-03-21T18:43:00.842Z,14.30
2019-03-21T18:45:30.507Z,14.30
2019-03-21T18:48:00.114Z,14.20
2019-03-21T18:50:29.738Z,14.20
2019-03-21T18:52:59.383Z,14.00
2019-03-21T18:55:29.051Z,14.00
2019-03-21T18:57:58.680Z,13.90
2019-03-21T19:00:28.310Z,13.90
2019-03-21T19:03:00.453Z,14.00
2019-03-21T19:05:29.612Z,14.00
2019-03-21T19:07:59.221Z,13.90
2019-03-21T19:10:28.855Z,13.70
2019-03-21T19:12:58.563Z,13.50
2019-03-21T19:15:28.193Z,13.50
2019-03-21T19:17:58.148Z,13.30
2019-03-21T19:20:27.766Z,13.30
2019-03-21T19:22:57.402Z,13.30
2019-03-21T19:25:27.056Z,13.20
2019-03-21T19:27:56.672Z,13.10
2019-03-21T19:30:26.417Z,13.10
2019-03-21T19:32:56.050Z,13.00
2019-03-21T19:35:25.691Z,13.00
2019-03-21T19:37:56.348Z,13.00
2019-03-21T19:40:26.073Z,13.00
2019-03-21T19:42:55.956Z,13.00
2019-03-21T19:45:25.583Z,12.90
2019-03-21T19:47:55.182Z,12.80
2019-03-21T19:50:24.916Z,12.60
2019-03-21T19:52:54.909Z,12.60
2019-03-21T19:55:30.839Z,12.60
2019-03-21T19:57:55.994Z,12.60
2019-03-21T20:00:25.600Z,12.60
2019-03-21T20:02:55.320Z,12.60
2019-03-21T20:05:24.926Z,12.60
2019-03-21T20:07:55.081Z,12.50
2019-03-21T20:10:25.249Z,12.50
2019-03-21T20:12:54.877Z,12.40
2019-03-21T20:15:24.493Z,12.40
2019-03-21T20:17:54.133Z,12.40
2019-03-21T20:20:23.742Z,12.30
2019-03-21T20:22:53.702Z,12.30
2019-03-21T20:25:23.426Z,12.20
2019-03-21T20:27:53.064Z,12.20
2019-03-21T20:30:22.952Z,12.20
2019-03-21T20:32:52.609Z,12.20
2019-03-21T20:35:22.238Z,12.20
2019-03-21T20:37:52.135Z,12.20
2019-03-21T20:40:21.753Z,12.10
2019-03-21T20:42:51.395Z,12.10
2019-03-21T20:45:21.039Z,12.10
2019-03-21T20:47:51.458Z,12.00
2019-03-21T20:50:21.914Z,12.00
2019-03-21T20:52:51.558Z,12.00
2019-03-21T20:55:21.196Z,12.00
2019-03-21T20:57:50.830Z,12.00
2019-03-21T21:00:21.358Z,11.90
2019-03-21T21:02:52.394Z,11.90
2019-03-21T21:05:23.320Z,12.00
2019-03-21T21:07:53.065Z,12.00
2019-03-21T21:10:22.680Z,12.00
2019-03-21T21:12:52.311Z,12.00
2019-03-21T21:15:21.925Z,11.90
2019-03-21T21:17:51.549Z,11.90
2019-03-21T21:20:21.234Z,11.90
2019-03-21T21:22:51.131Z,11.80
2019-03-21T21:25:20.745Z,11.80
2019-03-21T21:27:50.530Z,11.80
2019-03-21T21:30:20.277Z,11.80
2019-03-21T21:32:49.915Z,11.70
2019-03-21T21:35:19.520Z,11.70
2019-03-21T21:37:49.143Z,11.60
2019-03-21T21:40:18.886Z,11.50
2019-03-21T21:42:48.615Z,11.50
2019-03-21T21:45:18.533Z,11.40
2019-03-21T21:47:48.156Z,11.40
2019-03-21T21:50:18.645Z,11.30
2019-03-21T21:52:48.287Z,11.40
2019-03-21T21:55:17.897Z,11.50
2019-03-21T21:57:47.521Z,11.50
2019-03-21T22:00:18.040Z,11.50
2019-03-21T22:02:47.675Z,11.40
2019-03-21T22:05:17.295Z,11.30
2019-03-21T22:07:46.945Z,11.30
2019-03-21T22:10:16.664Z,11.30
2019-03-21T22:12:46.301Z,11.30
2019-03-21T22:15:16.506Z,11.30
2019-03-21T22:17:46.150Z,11.30
2019-03-21T22:20:17.370Z,11.30
2019-03-21T22:22:46.998Z,11.30
2019-03-21T22:25:16.598Z,11.10
2019-03-21T22:27:46.229Z,11.00
2019-03-21T22:30:15.986Z,10.90
2019-03-21T22:32:45.731Z,10.80
2019-03-21T22:35:15.338Z,10.80
2019-03-21T22:37:45.085Z,10.80
2019-03-21T22:40:14.830Z,10.90
2019-03-21T22:42:44.706Z,10.90
2019-03-21T22:45:14.636Z,10.80
2019-03-21T22:47:44.518Z,10.70
2019-03-21T22:50:15.028Z,10.70
2019-03-21T22:52:44.977Z,10.70
2019-03-21T22:55:14.574Z,10.50
2019-03-21T22:57:44.208Z,10.50
2019-03-21T23:00:16.218Z,10.50
2019-03-21T23:02:45.962Z,10.40
2019-03-21T23:05:15.641Z,10.50
2019-03-21T23:07:45.344Z,10.50
2019-03-21T23:10:15.320Z,10.40
2019-03-21T23:12:44.926Z,10.30
2019-03-21T23:15:14.686Z,10.30
2019-03-21T23:17:44.321Z,10.20
2019-03-21T23:20:14.193Z,10.20
2019-03-21T23:22:44.255Z,10.20
2019-03-21T23:25:16.599Z,10.10
2019-03-21T23:27:45.745Z,10.10
2019-03-21T23:30:16.414Z,10.00
2019-03-21T23:32:46.043Z,10.10
2019-03-21T23:35:15.665Z,10.00
2019-03-21T23:37:45.274Z,9.90
2019-03-21T23:40:15.311Z,9.90
2019-03-21T23:42:44.921Z,9.90
2019-03-21T23:45:14.867Z,9.80
2019-03-21T23:47:44.476Z,9.80
2019-03-21T23:50:14.115Z,9.70
2019-03-21T23:52:43.939Z,9.80
2019-03-21T23:55:13.857Z,9.80
2019-03-21T23:57:44.175Z,9.70
